sensor_id;sensor_type;location;lat;lon;timestamp;P1;durP1;ratioP1;P2;durP2;ratioP2
50205;SDS011;36098;48.390;10.856;2023-09-08T00:02:07;5.93;;;4.13;;
50205;SDS011;36098;48.390;10.856;2023-09-08T00:04:33;6.40;;;4.20;;
50205;SDS011;36098;48.390;10.856;2023-09-08T00:06:58;5.70;;;3.95;;
50205;SDS011;36098;48.390;10.856;2023-09-08T00:09:24;7.20;;;3.75;;
50205;SDS011;36098;48.390;10.856;2023-09-08T00:11:49;6.20;;;3.88;;
50205;SDS011;36098;48.390;10.856;2023-09-08T00:14:14;7.53;;;4.10;;
50205;SDS011;36098;48.390;10.856;2023-09-08T00:16:40;5.80;;;3.78;;
50205;SDS011;36098;48.390;10.856;2023-09-08T00:19:07;5.22;;;3.83;;
50205;SDS011;36098;48.390;10.856;2023-09-08T00:21:33;5.75;;;4.10;;
50205;SDS011;36098;48.390;10.856;2023-09-08T00:23:58;5.80;;;3.88;;
50205;SDS011;36098;48.390;10.856;2023-09-08T00:26:23;6.05;;;3.85;;
50205;SDS011;36098;48.390;10.856;2023-09-08T00:28:49;6.32;;;3.95;;
50205;SDS011;36098;48.390;10.856;2023-09-08T00:31:14;5.97;;;3.97;;
50205;SDS011;36098;48.390;10.856;2023-09-08T00:33:40;5.43;;;3.80;;
50205;SDS011;36098;48.390;10.856;2023-09-08T00:36:07;5.00;;;3.90;;
50205;SDS011;36098;48.390;10.856;2023-09-08T00:38:32;5.35;;;3.70;;
50205;SDS011;36098;48.390;10.856;2023-09-08T00:40:58;5.20;;;3.63;;
50205;SDS011;36098;48.390;10.856;2023-09-08T00:43:25;6.82;;;3.75;;
50205;SDS011;36098;48.390;10.856;2023-09-08T00:45:51;6.03;;;3.75;;
50205;SDS011;36098;48.390;10.856;2023-09-08T00:48:18;6.22;;;3.75;;
50205;SDS011;36098;48.390;10.856;2023-09-08T00:50:44;5.30;;;3.42;;
50205;SDS011;36098;48.390;10.856;2023-09-08T00:53:10;5.20;;;3.35;;
50205;SDS011;36098;48.390;10.856;2023-09-08T00:55:35;5.97;;;3.58;;
50205;SDS011;36098;48.390;10.856;2023-09-08T00:58:00;4.75;;;3.30;;
50205;SDS011;36098;48.390;10.856;2023-09-08T01:00:27;4.95;;;3.83;;
50205;SDS011;36098;48.390;10.856;2023-09-08T01:02:52;7.05;;;3.80;;
50205;SDS011;36098;48.390;10.856;2023-09-08T01:05:17;7.03;;;3.60;;
50205;SDS011;36098;48.390;10.856;2023-09-08T01:07:44;4.88;;;3.38;;
50205;SDS011;36098;48.390;10.856;2023-09-08T01:10:10;5.18;;;3.70;;
50205;SDS011;36098;48.390;10.856;2023-09-08T01:12:35;4.68;;;3.20;;
50205;SDS011;36098;48.390;10.856;2023-09-08T01:15:01;6.15;;;3.65;;
50205;SDS011;36098;48.390;10.856;2023-09-08T01:17:27;5.03;;;3.38;;
50205;SDS011;36098;48.390;10.856;2023-09-08T01:19:55;4.32;;;3.38;;
50205;SDS011;36098;48.390;10.856;2023-09-08T01:27:52;5.57;;;3.72;;
50205;SDS011;36098;48.390;10.856;2023-09-08T01:30:19;7.53;;;3.50;;
50205;SDS011;36098;48.390;10.856;2023-09-08T01:32:46;5.05;;;3.38;;
50205;SDS011;36098;48.390;10.856;2023-09-08T01:35:13;4.38;;;3.22;;
50205;SDS011;36098;48.390;10.856;2023-09-08T01:37:44;4.35;;;3.17;;
50205;SDS011;36098;48.390;10.856;2023-09-08T01:40:10;5.00;;;3.45;;
50205;SDS011;36098;48.390;10.856;2023-09-08T01:42:36;4.50;;;3.33;;
50205;SDS011;36098;48.390;10.856;2023-09-08T01:45:01;5.43;;;3.63;;
50205;SDS011;36098;48.390;10.856;2023-09-08T01:47:29;4.85;;;3.20;;
50205;SDS011;36098;48.390;10.856;2023-09-08T01:49:54;4.72;;;3.35;;
50205;SDS011;36098;48.390;10.856;2023-09-08T01:52:19;5.80;;;3.30;;
50205;SDS011;36098;48.390;10.856;2023-09-08T01:54:45;4.53;;;3.40;;
50205;SDS011;36098;48.390;10.856;2023-09-08T01:57:10;5.47;;;3.80;;
50205;SDS011;36098;48.390;10.856;2023-09-08T01:59:35;4.38;;;3.30;;
50205;SDS011;36098;48.390;10.856;2023-09-08T02:02:02;4.63;;;3.33;;
50205;SDS011;36098;48.390;10.856;2023-09-08T02:04:28;4.00;;;3.20;;
50205;SDS011;36098;48.390;10.856;2023-09-08T02:06:53;5.30;;;3.45;;
50205;SDS011;36098;48.390;10.856;2023-09-08T02:09:19;4.60;;;3.25;;
50205;SDS011;36098;48.390;10.856;2023-09-08T02:11:44;5.80;;;3.25;;
50205;SDS011;36098;48.390;10.856;2023-09-08T02:14:09;4.55;;;3.10;;
50205;SDS011;36098;48.390;10.856;2023-09-08T02:16:34;4.22;;;3.15;;
50205;SDS011;36098;48.390;10.856;2023-09-08T02:19:00;5.03;;;3.30;;
50205;SDS011;36098;48.390;10.856;2023-09-08T02:21:25;4.28;;;3.38;;
50205;SDS011;36098;48.390;10.856;2023-09-08T02:23:50;4.70;;;3.00;;
50205;SDS011;36098;48.390;10.856;2023-09-08T02:26:15;4.55;;;3.38;;
50205;SDS011;36098;48.390;10.856;2023-09-08T02:28:40;4.97;;;3.40;;
50205;SDS011;36098;48.390;10.856;2023-09-08T02:31:06;4.22;;;3.25;;
50205;SDS011;36098;48.390;10.856;2023-09-08T02:33:31;5.13;;;3.50;;
50205;SDS011;36098;48.390;10.856;2023-09-08T02:36:01;5.60;;;3.40;;
50205;SDS011;36098;48.390;10.856;2023-09-08T02:40:55;3.63;;;2.92;;
50205;SDS011;36098;48.390;10.856;2023-09-08T02:43:21;3.95;;;2.83;;
50205;SDS011;36098;48.390;10.856;2023-09-08T02:45:46;4.47;;;3.15;;
50205;SDS011;36098;48.390;10.856;2023-09-08T02:48:12;5.47;;;3.22;;
50205;SDS011;36098;48.390;10.856;2023-09-08T02:50:37;4.55;;;3.15;;
50205;SDS011;36098;48.390;10.856;2023-09-08T02:53:03;4.82;;;3.20;;
50205;SDS011;36098;48.390;10.856;2023-09-08T02:55:28;5.28;;;3.58;;
50205;SDS011;36098;48.390;10.856;2023-09-08T02:57:54;4.00;;;3.08;;
50205;SDS011;36098;48.390;10.856;2023-09-08T03:00:20;5.32;;;3.22;;
50205;SDS011;36098;48.390;10.856;2023-09-08T03:02:45;3.88;;;3.15;;
50205;SDS011;36098;48.390;10.856;2023-09-08T03:05:10;4.10;;;3.00;;
50205;SDS011;36098;48.390;10.856;2023-09-08T03:07:36;4.55;;;3.17;;
50205;SDS011;36098;48.390;10.856;2023-09-08T03:10:02;3.55;;;2.83;;
50205;SDS011;36098;48.390;10.856;2023-09-08T03:12:29;3.85;;;2.78;;
50205;SDS011;36098;48.390;10.856;2023-09-08T03:14:55;4.25;;;2.95;;
50205;SDS011;36098;48.390;10.856;2023-09-08T03:17:20;3.33;;;2.92;;
50205;SDS011;36098;48.390;10.856;2023-09-08T03:19:45;5.07;;;3.17;;
50205;SDS011;36098;48.390;10.856;2023-09-08T03:22:11;3.75;;;3.03;;
50205;SDS011;36098;48.390;10.856;2023-09-08T03:24:36;3.80;;;2.90;;
50205;SDS011;36098;48.390;10.856;2023-09-08T03:27:02;4.18;;;2.80;;
50205;SDS011;36098;48.390;10.856;2023-09-08T03:29:27;5.60;;;3.30;;
50205;SDS011;36098;48.390;10.856;2023-09-08T03:31:52;5.93;;;3.13;;
50205;SDS011;36098;48.390;10.856;2023-09-08T03:34:17;3.90;;;2.88;;
50205;SDS011;36098;48.390;10.856;2023-09-08T03:36:45;4.28;;;2.95;;
50205;SDS011;36098;48.390;10.856;2023-09-08T03:39:10;3.67;;;2.80;;
50205;SDS011;36098;48.390;10.856;2023-09-08T03:41:36;3.70;;;2.90;;
50205;SDS011;36098;48.390;10.856;2023-09-08T03:44:01;3.60;;;2.90;;
50205;SDS011;36098;48.390;10.856;2023-09-08T03:46:26;4.93;;;3.10;;
50205;SDS011;36098;48.390;10.856;2023-09-08T03:48:51;4.13;;;2.80;;
50205;SDS011;36098;48.390;10.856;2023-09-08T03:51:19;4.03;;;2.92;;
50205;SDS011;36098;48.390;10.856;2023-09-08T03:53:44;4.97;;;2.70;;
50205;SDS011;36098;48.390;10.856;2023-09-08T03:56:10;3.88;;;3.08;;
50205;SDS011;36098;48.390;10.856;2023-09-08T03:58:35;3.00;;;2.70;;
50205;SDS011;36098;48.390;10.856;2023-09-08T04:01:00;3.13;;;2.47;;
50205;SDS011;36098;48.390;10.856;2023-09-08T04:03:26;4.28;;;2.97;;
50205;SDS011;36098;48.390;10.856;2023-09-08T04:05:51;3.60;;;2.70;;
50205;SDS011;36098;48.390;10.856;2023-09-08T04:08:16;3.53;;;2.80;;
50205;SDS011;36098;48.390;10.856;2023-09-08T04:10:41;3.80;;;2.63;;
50205;SDS011;36098;48.390;10.856;2023-09-08T04:13:06;4.10;;;3.03;;
50205;SDS011;36098;48.390;10.856;2023-09-08T04:15:32;4.13;;;3.10;;
50205;SDS011;36098;48.390;10.856;2023-09-08T04:17:57;4.88;;;3.00;;
50205;SDS011;36098;48.390;10.856;2023-09-08T04:20:22;4.45;;;3.10;;
50205;SDS011;36098;48.390;10.856;2023-09-08T04:22:48;4.05;;;3.00;;
50205;SDS011;36098;48.390;10.856;2023-09-08T04:25:13;4.55;;;3.10;;
50205;SDS011;36098;48.390;10.856;2023-09-08T04:27:38;3.70;;;3.00;;
50205;SDS011;36098;48.390;10.856;2023-09-08T04:30:05;3.67;;;2.83;;
50205;SDS011;36098;48.390;10.856;2023-09-08T04:32:31;3.60;;;2.90;;
50205;SDS011;36098;48.390;10.856;2023-09-08T04:34:56;3.65;;;2.95;;
50205;SDS011;36098;48.390;10.856;2023-09-08T04:37:21;3.92;;;2.90;;
50205;SDS011;36098;48.390;10.856;2023-09-08T04:39:47;3.63;;;2.88;;
50205;SDS011;36098;48.390;10.856;2023-09-08T04:42:12;5.97;;;2.95;;
50205;SDS011;36098;48.390;10.856;2023-09-08T04:44:38;3.67;;;2.67;;
50205;SDS011;36098;48.390;10.856;2023-09-08T04:47:04;3.72;;;3.13;;
50205;SDS011;36098;48.390;10.856;2023-09-08T04:49:29;2.88;;;2.40;;
50205;SDS011;36098;48.390;10.856;2023-09-08T04:51:54;3.50;;;2.63;;
50205;SDS011;36098;48.390;10.856;2023-09-08T04:54:20;4.25;;;3.00;;
50205;SDS011;36098;48.390;10.856;2023-09-08T04:56:46;4.32;;;2.80;;
50205;SDS011;36098;48.390;10.856;2023-09-08T04:59:11;3.88;;;3.15;;
50205;SDS011;36098;48.390;10.856;2023-09-08T05:01:36;3.60;;;2.90;;
50205;SDS011;36098;48.390;10.856;2023-09-08T05:04:02;3.67;;;2.88;;
50205;SDS011;36098;48.390;10.856;2023-09-08T05:06:28;4.00;;;2.85;;
50205;SDS011;36098;48.390;10.856;2023-09-08T05:08:53;4.15;;;2.85;;
50205;SDS011;36098;48.390;10.856;2023-09-08T05:11:19;4.10;;;2.90;;
50205;SDS011;36098;48.390;10.856;2023-09-08T05:13:46;4.10;;;2.78;;
50205;SDS011;36098;48.390;10.856;2023-09-08T05:16:11;3.45;;;2.80;;
50205;SDS011;36098;48.390;10.856;2023-09-08T05:18:40;3.97;;;2.72;;
50205;SDS011;36098;48.390;10.856;2023-09-08T05:21:08;3.17;;;2.47;;
50205;SDS011;36098;48.390;10.856;2023-09-08T05:23:34;3.75;;;2.80;;
50205;SDS011;36098;48.390;10.856;2023-09-08T05:25:59;3.78;;;2.38;;
50205;SDS011;36098;48.390;10.856;2023-09-08T05:28:25;3.42;;;2.55;;
50205;SDS011;36098;48.390;10.856;2023-09-08T05:30:50;3.72;;;2.70;;
50205;SDS011;36098;48.390;10.856;2023-09-08T05:33:16;5.22;;;3.05;;
50205;SDS011;36098;48.390;10.856;2023-09-08T05:35:42;4.70;;;2.78;;
50205;SDS011;36098;48.390;10.856;2023-09-08T05:38:07;5.60;;;2.92;;
50205;SDS011;36098;48.390;10.856;2023-09-08T05:40:34;3.35;;;2.60;;
50205;SDS011;36098;48.390;10.856;2023-09-08T05:43:00;3.55;;;2.80;;
50205;SDS011;36098;48.390;10.856;2023-09-08T05:45:25;3.65;;;2.70;;
50205;SDS011;36098;48.390;10.856;2023-09-08T05:47:51;3.65;;;2.72;;
50205;SDS011;36098;48.390;10.856;2023-09-08T05:50:16;5.10;;;2.85;;
50205;SDS011;36098;48.390;10.856;2023-09-08T05:52:42;3.25;;;2.55;;
50205;SDS011;36098;48.390;10.856;2023-09-08T05:55:08;3.63;;;2.60;;
50205;SDS011;36098;48.390;10.856;2023-09-08T05:57:33;4.18;;;3.00;;
50205;SDS011;36098;48.390;10.856;2023-09-08T05:59:59;5.18;;;2.80;;
50205;SDS011;36098;48.390;10.856;2023-09-08T06:02:25;3.92;;;2.67;;
50205;SDS011;36098;48.390;10.856;2023-09-08T06:04:50;4.07;;;2.60;;
50205;SDS011;36098;48.390;10.856;2023-09-08T06:07:15;3.42;;;2.90;;
50205;SDS011;36098;48.390;10.856;2023-09-08T06:09:41;3.47;;;2.63;;
50205;SDS011;36098;48.390;10.856;2023-09-08T06:12:06;3.30;;;2.50;;
50205;SDS011;36098;48.390;10.856;2023-09-08T06:14:31;4.28;;;2.70;;
50205;SDS011;36098;48.390;10.856;2023-09-08T06:16:56;4.13;;;3.08;;
50205;SDS011;36098;48.390;10.856;2023-09-08T06:19:22;3.67;;;3.00;;
50205;SDS011;36098;48.390;10.856;2023-09-08T06:21:47;5.45;;;3.00;;
50205;SDS011;36098;48.390;10.856;2023-09-08T06:24:12;5.18;;;2.92;;
50205;SDS011;36098;48.390;10.856;2023-09-08T06:26:37;5.03;;;3.20;;
50205;SDS011;36098;48.390;10.856;2023-09-08T06:29:03;6.28;;;4.07;;
50205;SDS011;36098;48.390;10.856;2023-09-08T06:31:28;6.18;;;4.50;;
50205;SDS011;36098;48.390;10.856;2023-09-08T06:33:54;8.52;;;5.03;;
50205;SDS011;36098;48.390;10.856;2023-09-08T06:36:19;6.32;;;4.78;;
50205;SDS011;36098;48.390;10.856;2023-09-08T06:38:44;6.57;;;5.05;;
50205;SDS011;36098;48.390;10.856;2023-09-08T06:41:12;10.70;;;5.68;;
50205;SDS011;36098;48.390;10.856;2023-09-08T06:43:38;9.20;;;5.43;;
50205;SDS011;36098;48.390;10.856;2023-09-08T06:46:03;11.63;;;5.20;;
50205;SDS011;36098;48.390;10.856;2023-09-08T06:48:29;11.15;;;5.20;;
50205;SDS011;36098;48.390;10.856;2023-09-08T06:50:55;7.57;;;5.20;;
50205;SDS011;36098;48.390;10.856;2023-09-08T06:53:21;8.93;;;5.18;;
50205;SDS011;36098;48.390;10.856;2023-09-08T06:55:47;19.85;;;6.15;;
50205;SDS011;36098;48.390;10.856;2023-09-08T06:58:12;8.60;;;4.80;;
50205;SDS011;36098;48.390;10.856;2023-09-08T07:00:39;12.05;;;5.20;;
50205;SDS011;36098;48.390;10.856;2023-09-08T07:03:05;7.55;;;4.70;;
50205;SDS011;36098;48.390;10.856;2023-09-08T07:05:30;9.90;;;5.80;;
50205;SDS011;36098;48.390;10.856;2023-09-08T07:07:56;8.82;;;5.15;;
50205;SDS011;36098;48.390;10.856;2023-09-08T07:10:21;11.85;;;5.30;;
50205;SDS011;36098;48.390;10.856;2023-09-08T07:12:46;6.63;;;4.68;;
50205;SDS011;36098;48.390;10.856;2023-09-08T07:15:13;11.38;;;5.68;;
50205;SDS011;36098;48.390;10.856;2023-09-08T07:17:38;7.50;;;4.72;;
50205;SDS011;36098;48.390;10.856;2023-09-08T07:20:03;9.48;;;5.25;;
50205;SDS011;36098;48.390;10.856;2023-09-08T07:22:29;11.43;;;4.90;;
50205;SDS011;36098;48.390;10.856;2023-09-08T07:24:55;16.67;;;5.97;;
50205;SDS011;36098;48.390;10.856;2023-09-08T07:27:20;9.18;;;5.35;;
50205;SDS011;36098;48.390;10.856;2023-09-08T07:29:45;10.68;;;5.55;;
50205;SDS011;36098;48.390;10.856;2023-09-08T07:32:12;7.93;;;5.40;;
50205;SDS011;36098;48.390;10.856;2023-09-08T07:34:38;15.57;;;6.32;;
50205;SDS011;36098;48.390;10.856;2023-09-08T07:37:03;16.20;;;6.93;;
50205;SDS011;36098;48.390;10.856;2023-09-08T07:39:28;18.42;;;6.78;;
50205;SDS011;36098;48.390;10.856;2023-09-08T07:41:55;19.27;;;7.63;;
50205;SDS011;36098;48.390;10.856;2023-09-08T07:44:21;12.52;;;7.13;;
50205;SDS011;36098;48.390;10.856;2023-09-08T07:46:46;16.25;;;7.40;;
50205;SDS011;36098;48.390;10.856;2023-09-08T07:49:13;19.25;;;7.60;;
50205;SDS011;36098;48.390;10.856;2023-09-08T07:51:40;12.55;;;6.95;;
50205;SDS011;36098;48.390;10.856;2023-09-08T07:54:05;16.30;;;7.00;;
50205;SDS011;36098;48.390;10.856;2023-09-08T07:56:31;14.43;;;7.03;;
50205;SDS011;36098;48.390;10.856;2023-09-08T07:58:57;10.93;;;6.38;;
50205;SDS011;36098;48.390;10.856;2023-09-08T08:01:23;14.13;;;7.20;;
50205;SDS011;36098;48.390;10.856;2023-09-08T08:03:48;20.20;;;7.28;;
50205;SDS011;36098;48.390;10.856;2023-09-08T08:06:13;17.55;;;8.20;;
50205;SDS011;36098;48.390;10.856;2023-09-08T08:08:39;11.43;;;7.20;;
50205;SDS011;36098;48.390;10.856;2023-09-08T08:11:15;12.25;;;6.90;;
50205;SDS011;36098;48.390;10.856;2023-09-08T08:13:42;11.30;;;7.25;;
50205;SDS011;36098;48.390;10.856;2023-09-08T08:16:08;13.45;;;7.18;;
50205;SDS011;36098;48.390;10.856;2023-09-08T08:18:33;10.50;;;7.00;;
50205;SDS011;36098;48.390;10.856;2023-09-08T08:20:58;14.98;;;6.65;;
50205;SDS011;36098;48.390;10.856;2023-09-08T08:23:25;16.27;;;6.57;;
50205;SDS011;36098;48.390;10.856;2023-09-08T08:25:51;14.40;;;6.78;;
50205;SDS011;36098;48.390;10.856;2023-09-08T08:28:16;9.82;;;6.18;;
50205;SDS011;36098;48.390;10.856;2023-09-08T08:30:41;17.42;;;6.25;;
50205;SDS011;36098;48.390;10.856;2023-09-08T08:33:07;15.70;;;9.05;;
50205;SDS011;36098;48.390;10.856;2023-09-08T08:35:32;12.73;;;6.50;;
50205;SDS011;36098;48.390;10.856;2023-09-08T08:37:57;12.65;;;6.97;;
50205;SDS011;36098;48.390;10.856;2023-09-08T08:40:23;17.00;;;6.68;;
50205;SDS011;36098;48.390;10.856;2023-09-08T08:42:54;9.73;;;6.13;;
50205;SDS011;36098;48.390;10.856;2023-09-08T08:45:22;13.88;;;6.50;;
50205;SDS011;36098;48.390;10.856;2023-09-08T08:47:51;9.13;;;6.45;;
50205;SDS011;36098;48.390;10.856;2023-09-08T08:50:17;16.77;;;9.15;;
50205;SDS011;36098;48.390;10.856;2023-09-08T08:52:43;17.58;;;8.98;;
50205;SDS011;36098;48.390;10.856;2023-09-08T08:55:09;14.75;;;7.53;;
50205;SDS011;36098;48.390;10.856;2023-09-08T08:57:38;11.18;;;6.88;;
50205;SDS011;36098;48.390;10.856;2023-09-08T09:00:05;10.98;;;7.05;;
50205;SDS011;36098;48.390;10.856;2023-09-08T09:02:35;10.38;;;6.60;;
50205;SDS011;36098;48.390;10.856;2023-09-08T09:05:01;12.02;;;5.80;;
50205;SDS011;36098;48.390;10.856;2023-09-08T09:07:28;10.68;;;6.13;;
50205;SDS011;36098;48.390;10.856;2023-09-08T09:09:53;9.18;;;5.85;;
50205;SDS011;36098;48.390;10.856;2023-09-08T09:12:19;8.80;;;5.78;;
50205;SDS011;36098;48.390;10.856;2023-09-08T09:14:45;11.18;;;6.00;;
50205;SDS011;36098;48.390;10.856;2023-09-08T09:17:13;8.35;;;5.47;;
50205;SDS011;36098;48.390;10.856;2023-09-08T09:19:41;11.95;;;5.50;;
50205;SDS011;36098;48.390;10.856;2023-09-08T09:22:06;7.88;;;5.50;;
50205;SDS011;36098;48.390;10.856;2023-09-08T09:24:32;8.23;;;4.70;;
50205;SDS011;36098;48.390;10.856;2023-09-08T09:27:00;8.40;;;5.10;;
50205;SDS011;36098;48.390;10.856;2023-09-08T09:29:28;7.78;;;5.10;;
50205;SDS011;36098;48.390;10.856;2023-09-08T09:31:55;9.43;;;5.30;;
50205;SDS011;36098;48.390;10.856;2023-09-08T09:34:22;8.57;;;5.00;;
50205;SDS011;36098;48.390;10.856;2023-09-08T09:36:49;7.25;;;5.32;;
50205;SDS011;36098;48.390;10.856;2023-09-08T09:39:18;9.18;;;5.25;;
50205;SDS011;36098;48.390;10.856;2023-09-08T09:41:48;10.05;;;5.60;;
50205;SDS011;36098;48.390;10.856;2023-09-08T09:44:15;8.48;;;5.38;;
50205;SDS011;36098;48.390;10.856;2023-09-08T09:46:44;6.97;;;5.20;;
50205;SDS011;36098;48.390;10.856;2023-09-08T09:49:15;8.07;;;4.90;;
50205;SDS011;36098;48.390;10.856;2023-09-08T09:51:44;7.53;;;5.32;;
50205;SDS011;36098;48.390;10.856;2023-09-08T09:54:12;9.23;;;5.57;;
50205;SDS011;36098;48.390;10.856;2023-09-08T09:56:38;8.77;;;5.10;;
50205;SDS011;36098;48.390;10.856;2023-09-08T09:59:05;7.70;;;5.40;;
50205;SDS011;36098;48.390;10.856;2023-09-08T10:01:33;9.73;;;5.60;;
50205;SDS011;36098;48.390;10.856;2023-09-08T10:03:58;9.90;;;5.30;;
50205;SDS011;36098;48.390;10.856;2023-09-08T10:06:25;9.20;;;5.50;;
50205;SDS011;36098;48.390;10.856;2023-09-08T10:08:51;8.20;;;5.20;;
50205;SDS011;36098;48.390;10.856;2023-09-08T10:11:17;9.55;;;5.30;;
50205;SDS011;36098;48.390;10.856;2023-09-08T10:13:46;8.07;;;5.22;;
50205;SDS011;36098;48.390;10.856;2023-09-08T10:16:15;9.63;;;5.22;;
50205;SDS011;36098;48.390;10.856;2023-09-08T10:18:44;11.15;;;5.53;;
50205;SDS011;36098;48.390;10.856;2023-09-08T10:21:11;8.23;;;4.72;;
50205;SDS011;36098;48.390;10.856;2023-09-08T10:23:42;7.53;;;4.65;;
50205;SDS011;36098;48.390;10.856;2023-09-08T10:26:16;8.52;;;4.82;;
50205;SDS011;36098;48.390;10.856;2023-09-08T10:28:42;8.60;;;4.53;;
50205;SDS011;36098;48.390;10.856;2023-09-08T10:31:09;7.53;;;4.60;;
50205;SDS011;36098;48.390;10.856;2023-09-08T10:33:34;11.15;;;4.63;;
50205;SDS011;36098;48.390;10.856;2023-09-08T10:36:01;8.27;;;5.10;;
50205;SDS011;36098;48.390;10.856;2023-09-08T10:38:33;6.78;;;5.03;;
50205;SDS011;36098;48.390;10.856;2023-09-08T10:43:43;8.85;;;4.95;;
50205;SDS011;36098;48.390;10.856;2023-09-08T10:46:30;7.70;;;4.70;;
50205;SDS011;36098;48.390;10.856;2023-09-08T10:49:03;10.98;;;5.32;;
50205;SDS011;36098;48.390;10.856;2023-09-08T10:51:31;7.05;;;4.82;;
50205;SDS011;36098;48.390;10.856;2023-09-08T10:53:58;7.75;;;5.18;;
50205;SDS011;36098;48.390;10.856;2023-09-08T10:56:27;8.88;;;5.18;;
50205;SDS011;36098;48.390;10.856;2023-09-08T10:59:14;7.28;;;4.70;;
50205;SDS011;36098;48.390;10.856;2023-09-08T11:01:41;12.05;;;4.97;;
50205;SDS011;36098;48.390;10.856;2023-09-08T11:04:06;12.50;;;5.00;;
50205;SDS011;36098;48.390;10.856;2023-09-08T11:06:34;13.70;;;5.10;;
50205;SDS011;36098;48.390;10.856;2023-09-08T11:09:05;18.75;;;5.35;;
50205;SDS011;36098;48.390;10.856;2023-09-08T11:11:32;12.13;;;4.90;;
50205;SDS011;36098;48.390;10.856;2023-09-08T11:13:58;17.67;;;5.22;;
50205;SDS011;36098;48.390;10.856;2023-09-08T11:16:24;8.82;;;4.63;;
50205;SDS011;36098;48.390;10.856;2023-09-08T11:18:54;12.25;;;4.43;;
50205;SDS011;36098;48.390;10.856;2023-09-08T11:21:19;8.50;;;4.63;;
50205;SDS011;36098;48.390;10.856;2023-09-08T11:23:45;10.90;;;5.00;;
50205;SDS011;36098;48.390;10.856;2023-09-08T11:26:11;8.75;;;4.72;;
50205;SDS011;36098;48.390;10.856;2023-09-08T11:28:37;11.23;;;5.40;;
50205;SDS011;36098;48.390;10.856;2023-09-08T11:31:02;12.73;;;5.13;;
50205;SDS011;36098;48.390;10.856;2023-09-08T11:33:32;13.27;;;4.70;;
50205;SDS011;36098;48.390;10.856;2023-09-08T11:35:58;11.40;;;5.70;;
50205;SDS011;36098;48.390;10.856;2023-09-08T11:38:24;10.68;;;5.07;;
50205;SDS011;36098;48.390;10.856;2023-09-08T11:40:51;13.05;;;5.32;;
50205;SDS011;36098;48.390;10.856;2023-09-08T11:43:18;15.32;;;5.30;;
50205;SDS011;36098;48.390;10.856;2023-09-08T11:45:43;10.50;;;4.82;;
50205;SDS011;36098;48.390;10.856;2023-09-08T11:48:09;14.07;;;5.45;;
50205;SDS011;36098;48.390;10.856;2023-09-08T11:50:34;9.85;;;5.22;;
50205;SDS011;36098;48.390;10.856;2023-09-08T11:53:00;10.45;;;5.47;;
50205;SDS011;36098;48.390;10.856;2023-09-08T11:55:27;10.18;;;5.25;;
50205;SDS011;36098;48.390;10.856;2023-09-08T11:57:53;11.55;;;4.88;;
50205;SDS011;36098;48.390;10.856;2023-09-08T12:00:22;8.15;;;5.13;;
50205;SDS011;36098;48.390;10.856;2023-09-08T12:02:48;8.57;;;5.13;;
50205;SDS011;36098;48.390;10.856;2023-09-08T12:05:24;8.90;;;4.90;;
50205;SDS011;36098;48.390;10.856;2023-09-08T12:07:51;8.15;;;5.35;;
50205;SDS011;36098;48.390;10.856;2023-09-08T12:10:17;9.68;;;5.10;;
50205;SDS011;36098;48.390;10.856;2023-09-08T12:12:44;11.25;;;5.68;;
50205;SDS011;36098;48.390;10.856;2023-09-08T12:15:30;11.30;;;5.53;;
50205;SDS011;36098;48.390;10.856;2023-09-08T12:17:59;12.73;;;5.68;;
50205;SDS011;36098;48.390;10.856;2023-09-08T12:20:29;10.38;;;5.53;;
50205;SDS011;36098;48.390;10.856;2023-09-08T12:22:57;11.90;;;5.57;;
50205;SDS011;36098;48.390;10.856;2023-09-08T12:25:23;13.57;;;5.43;;
50205;SDS011;36098;48.390;10.856;2023-09-08T12:27:49;17.77;;;7.15;;
50205;SDS011;36098;48.390;10.856;2023-09-08T12:30:17;19.38;;;5.97;;
50205;SDS011;36098;48.390;10.856;2023-09-08T12:32:45;11.98;;;5.72;;
50205;SDS011;36098;48.390;10.856;2023-09-08T12:35:18;17.58;;;6.03;;
50205;SDS011;36098;48.390;10.856;2023-09-08T12:37:46;12.00;;;5.88;;
50205;SDS011;36098;48.390;10.856;2023-09-08T12:40:11;18.50;;;5.70;;
50205;SDS011;36098;48.390;10.856;2023-09-08T12:42:37;16.30;;;5.88;;
50205;SDS011;36098;48.390;10.856;2023-09-08T12:45:02;15.65;;;6.18;;
50205;SDS011;36098;48.390;10.856;2023-09-08T12:47:28;16.25;;;5.82;;
50205;SDS011;36098;48.390;10.856;2023-09-08T12:49:53;17.17;;;5.93;;
50205;SDS011;36098;48.390;10.856;2023-09-08T12:52:20;14.48;;;5.63;;
50205;SDS011;36098;48.390;10.856;2023-09-08T12:54:46;13.30;;;5.93;;
50205;SDS011;36098;48.390;10.856;2023-09-08T12:57:11;7.60;;;5.18;;
50205;SDS011;36098;48.390;10.856;2023-09-08T12:59:36;8.55;;;5.45;;
50205;SDS011;36098;48.390;10.856;2023-09-08T13:02:01;11.13;;;5.07;;
50205;SDS011;36098;48.390;10.856;2023-09-08T13:04:27;15.63;;;5.68;;
50205;SDS011;36098;48.390;10.856;2023-09-08T13:06:52;10.40;;;5.38;;
50205;SDS011;36098;48.390;10.856;2023-09-08T13:09:17;14.75;;;5.50;;
50205;SDS011;36098;48.390;10.856;2023-09-08T13:11:43;11.27;;;5.35;;
50205;SDS011;36098;48.390;10.856;2023-09-08T13:14:08;12.40;;;5.38;;
50205;SDS011;36098;48.390;10.856;2023-09-08T13:16:33;7.03;;;5.13;;
50205;SDS011;36098;48.390;10.856;2023-09-08T13:18:59;10.80;;;5.40;;
50205;SDS011;36098;48.390;10.856;2023-09-08T13:21:25;9.82;;;5.13;;
50205;SDS011;36098;48.390;10.856;2023-09-08T13:23:50;572.97;;;190.20;;
50205;SDS011;36098;48.390;10.856;2023-09-08T13:26:15;713.25;;;215.90;;
50205;SDS011;36098;48.390;10.856;2023-09-08T13:28:41;814.80;;;331.52;;
50205;SDS011;36098;48.390;10.856;2023-09-08T13:31:06;147.88;;;47.40;;
50205;SDS011;36098;48.390;10.856;2023-09-08T13:33:31;56.00;;;18.80;;
50205;SDS011;36098;48.390;10.856;2023-09-08T13:35:57;41.38;;;15.13;;
50205;SDS011;36098;48.390;10.856;2023-09-08T13:38:22;39.55;;;14.35;;
50205;SDS011;36098;48.390;10.856;2023-09-08T13:40:47;36.20;;;13.30;;
50205;SDS011;36098;48.390;10.856;2023-09-08T13:43:13;30.60;;;12.00;;
50205;SDS011;36098;48.390;10.856;2023-09-08T13:45:38;23.92;;;10.70;;
50205;SDS011;36098;48.390;10.856;2023-09-08T13:48:04;26.52;;;10.27;;
50205;SDS011;36098;48.390;10.856;2023-09-08T13:50:31;25.63;;;10.38;;
50205;SDS011;36098;48.390;10.856;2023-09-08T13:52:56;20.13;;;8.77;;
50205;SDS011;36098;48.390;10.856;2023-09-08T13:55:22;25.20;;;9.50;;
50205;SDS011;36098;48.390;10.856;2023-09-08T13:57:49;23.75;;;8.93;;
50205;SDS011;36098;48.390;10.856;2023-09-08T14:00:14;23.80;;;9.30;;
50205;SDS011;36098;48.390;10.856;2023-09-08T14:02:40;21.63;;;8.68;;
50205;SDS011;36098;48.390;10.856;2023-09-08T14:05:06;18.83;;;7.95;;
50205;SDS011;36098;48.390;10.856;2023-09-08T14:07:32;16.08;;;7.60;;
50205;SDS011;36098;48.390;10.856;2023-09-08T14:09:57;20.23;;;7.28;;
50205;SDS011;36098;48.390;10.856;2023-09-08T14:12:23;15.18;;;6.80;;
50205;SDS011;36098;48.390;10.856;2023-09-08T14:14:49;14.23;;;7.20;;
50205;SDS011;36098;48.390;10.856;2023-09-08T14:17:14;16.15;;;6.95;;
50205;SDS011;36098;48.390;10.856;2023-09-08T14:19:40;14.10;;;5.97;;
50205;SDS011;36098;48.390;10.856;2023-09-08T14:22:05;15.68;;;6.25;;
50205;SDS011;36098;48.390;10.856;2023-09-08T14:24:30;15.02;;;6.35;;
50205;SDS011;36098;48.390;10.856;2023-09-08T14:26:55;12.88;;;6.43;;
50205;SDS011;36098;48.390;10.856;2023-09-08T14:29:21;12.65;;;6.18;;
50205;SDS011;36098;48.390;10.856;2023-09-08T14:31:46;10.95;;;5.47;;
50205;SDS011;36098;48.390;10.856;2023-09-08T14:34:12;12.82;;;5.93;;